createdAt,value
2023-03-17T00:02:47.832Z,10.03
2023-03-17T00:05:58.398Z,7.37
2023-03-17T00:09:05.825Z,7.50
2023-03-17T00:12:13.160Z,15.50
2023-03-17T00:15:20.684Z,14.70
2023-03-17T00:18:27.397Z,8.10
2023-03-17T00:21:36.939Z,12.00
2023-03-17T00:24:43.569Z,12.73
2023-03-17T00:27:50.450Z,7.53
2023-03-17T00:30:58.621Z,11.80
2023-03-17T00:34:04.904Z,8.47
2023-03-17T00:37:13.996Z,10.33
2023-03-17T00:40:23.725Z,12.90
2023-03-17T00:43:30.760Z,11.17
2023-03-17T00:46:38.872Z,10.00
2023-03-17T00:49:45.577Z,5.47
2023-03-17T00:52:56.247Z,7.13
2023-03-17T00:56:03.290Z,7.93
2023-03-17T00:59:20.630Z,5.20
2023-03-17T01:02:26.875Z,5.07
2023-03-17T01:05:33.156Z,4.80
2023-03-17T01:08:42.573Z,7.27
2023-03-17T01:11:49.399Z,7.57
2023-03-17T01:14:56.561Z,2.90
2023-03-17T01:18:03.926Z,5.00
2023-03-17T01:21:10.699Z,4.90
2023-03-17T01:24:18.704Z,4.03
2023-03-17T01:27:25.502Z,10.17
2023-03-17T01:30:34.163Z,8.53
2023-03-17T01:33:40.762Z,9.43
2023-03-17T01:36:47.640Z,8.33
2023-03-17T01:39:55.845Z,5.13
2023-03-17T01:43:17.564Z,6.37
2023-03-17T01:46:29.954Z,6.03
2023-03-17T01:49:39.740Z,4.97
2023-03-17T01:52:48.283Z,12.70
2023-03-17T01:55:58.966Z,7.87
2023-03-17T01:59:08.282Z,6.70
2023-03-17T02:02:19.957Z,4.50
2023-03-17T02:05:28.910Z,5.30
2023-03-17T02:08:35.508Z,3.83
2023-03-17T02:11:43.416Z,6.17
2023-03-17T02:14:49.629Z,5.27
2023-03-17T02:17:55.967Z,4.43
2023-03-17T02:21:31.914Z,5.67
2023-03-17T02:24:41.830Z,5.33
2023-03-17T02:27:51.357Z,5.37
2023-03-17T02:30:58.247Z,4.43
2023-03-17T02:34:04.922Z,8.03
2023-03-17T02:37:12.868Z,5.63
2023-03-17T02:40:19.278Z,6.43
2023-03-17T02:43:25.613Z,5.23
2023-03-17T02:46:31.746Z,8.47
2023-03-17T02:49:39.104Z,5.50
2023-03-17T02:52:46.896Z,11.20
2023-03-17T02:55:53.235Z,12.23
2023-03-17T02:58:59.537Z,6.43
2023-03-17T03:02:05.774Z,7.23
2023-03-17T03:05:12.059Z,6.80
2023-03-17T03:08:19.633Z,9.70
2023-03-17T03:11:26.789Z,10.10
2023-03-17T03:14:33.696Z,9.37
2023-03-17T03:17:39.911Z,12.47
2023-03-17T03:20:47.521Z,6.80
2023-03-17T03:23:55.436Z,7.20
2023-03-17T03:27:01.957Z,6.70
2023-03-17T03:30:10.623Z,5.23
2023-03-17T03:33:17.451Z,5.20
2023-03-17T03:36:23.942Z,11.30
2023-03-17T03:39:32.020Z,16.70
2023-03-17T03:42:38.553Z,36.30
2023-03-17T03:45:44.942Z,30.00
2023-03-17T03:48:51.209Z,36.77
2023-03-17T03:51:57.453Z,16.27
2023-03-17T03:55:05.602Z,12.13
2023-03-17T03:58:12.132Z,13.90
2023-03-17T04:01:19.025Z,10.77
2023-03-17T04:04:25.273Z,21.93
2023-03-17T04:07:31.602Z,29.83
2023-03-17T04:10:39.215Z,31.37
2023-03-17T04:13:45.972Z,24.00
2023-03-17T04:16:52.389Z,17.03
2023-03-17T04:20:00.222Z,8.10
2023-03-17T04:23:06.826Z,5.20
2023-03-17T04:26:14.838Z,8.80
2023-03-17T04:29:21.570Z,14.93
2023-03-17T04:32:28.143Z,15.07
2023-03-17T04:35:34.438Z,18.93
2023-03-17T04:38:40.651Z,23.43
2023-03-17T04:41:48.384Z,15.17
2023-03-17T04:44:54.708Z,8.53
2023-03-17T04:48:01.300Z,6.83
2023-03-17T04:51:09.767Z,5.93
2023-03-17T04:54:17.589Z,6.70
2023-03-17T04:57:25.348Z,11.17
2023-03-17T05:00:31.771Z,9.63
2023-03-17T05:03:38.311Z,9.17
2023-03-17T05:06:44.775Z,22.40
2023-03-17T05:09:51.978Z,21.90
2023-03-17T05:12:59.971Z,32.63
2023-03-17T05:16:07.744Z,22.33
2023-03-17T05:19:14.457Z,20.80
2023-03-17T05:22:20.914Z,16.47
2023-03-17T05:25:27.195Z,13.77
2023-03-17T05:28:34.770Z,12.10
2023-03-17T05:31:41.944Z,23.60
2023-03-17T05:34:48.670Z,40.97
2023-03-17T05:37:54.947Z,25.07
2023-03-17T05:41:02.239Z,35.93
2023-03-17T05:44:12.738Z,36.73
2023-03-17T05:47:18.886Z,27.20
2023-03-17T05:50:25.530Z,28.47
2023-03-17T05:53:32.343Z,40.83
2023-03-17T05:56:38.782Z,37.63
2023-03-17T05:59:46.676Z,25.90
2023-03-17T06:02:53.015Z,22.50
2023-03-17T06:05:59.016Z,18.43
2023-03-17T06:09:05.054Z,20.40
2023-03-17T06:12:11.528Z,24.93
2023-03-17T06:15:19.173Z,55.00
2023-03-17T06:18:25.604Z,49.60
2023-03-17T06:21:31.821Z,73.60
2023-03-17T06:24:38.475Z,89.93
2023-03-17T06:27:45.001Z,89.27
2023-03-17T06:30:53.241Z,90.70
2023-03-17T06:33:59.593Z,28.97
2023-03-17T06:37:06.346Z,26.87
2023-03-17T06:40:14.368Z,26.57
2023-03-17T06:43:22.443Z,32.43
2023-03-17T06:46:30.609Z,20.93
2023-03-17T06:49:36.998Z,16.37
2023-03-17T06:52:46.228Z,17.00
2023-03-17T06:55:53.280Z,17.03
2023-03-17T06:58:59.945Z,17.20
2023-03-17T07:02:08.479Z,24.60
2023-03-17T07:05:15.152Z,25.40
2023-03-17T07:08:22.137Z,13.73
2023-03-17T07:11:29.360Z,10.03
2023-03-17T07:14:36.971Z,17.00
2023-03-17T07:17:46.862Z,24.57
2023-03-17T07:20:54.144Z,7.77
2023-03-17T07:24:00.581Z,6.97
2023-03-17T07:27:07.170Z,5.93
2023-03-17T07:30:19.058Z,4.80
2023-03-17T07:33:26.708Z,3.23
2023-03-17T07:36:32.960Z,3.03
2023-03-17T07:39:39.948Z,4.63
2023-03-17T07:42:46.509Z,7.23
2023-03-17T07:45:53.011Z,7.03
2023-03-17T07:49:01.223Z,6.77
2023-03-17T07:52:08.531Z,7.83
2023-03-17T07:55:14.904Z,13.23
2023-03-17T07:58:21.897Z,18.17
2023-03-17T08:01:29.197Z,27.93
2023-03-17T08:04:37.755Z,11.17
2023-03-17T08:07:44.638Z,3.90
2023-03-17T08:10:51.522Z,4.43
2023-03-17T08:13:57.493Z,5.67
2023-03-17T08:17:04.992Z,3.20
2023-03-17T08:20:15.237Z,2.63
2023-03-17T08:23:26.033Z,2.60
2023-03-17T08:26:32.698Z,2.43
2023-03-17T08:29:39.315Z,2.40
2023-03-17T08:32:45.965Z,2.57
2023-03-17T08:35:54.235Z,3.00
2023-03-17T08:39:00.597Z,3.00
2023-03-17T08:42:07.395Z,3.83
2023-03-17T08:45:14.964Z,11.53
2023-03-17T08:48:21.713Z,5.90
2023-03-17T08:51:31.320Z,17.03
2023-03-17T08:54:38.020Z,7.47
2023-03-17T08:57:45.299Z,10.33
2023-03-17T09:00:52.782Z,6.43
2023-03-17T09:03:59.233Z,4.70
2023-03-17T09:07:09.611Z,7.90
2023-03-17T09:10:17.015Z,7.43
2023-03-17T09:13:23.994Z,2.00
2023-03-17T09:16:34.134Z,6.27
2023-03-17T09:19:40.599Z,1.97
2023-03-17T09:22:49.283Z,1.93
2023-03-17T09:25:56.074Z,24.53
2023-03-17T09:29:04.705Z,5.00
2023-03-17T09:32:11.399Z,3.43
2023-03-17T09:35:17.987Z,3.30
2023-03-17T09:38:26.155Z,7.00
2023-03-17T09:41:59.672Z,4.60
2023-03-17T09:45:24.833Z,2.07
2023-03-17T09:48:43.815Z,2.10
2023-03-17T09:51:51.744Z,3.20
2023-03-17T09:55:01.521Z,2.20
2023-03-17T09:58:13.134Z,2.63
2023-03-17T10:01:21.149Z,2.47
2023-03-17T10:04:28.256Z,2.43
2023-03-17T10:07:43.321Z,1.77
2023-03-17T10:10:59.153Z,2.87
2023-03-17T10:14:09.611Z,2.63
2023-03-17T10:17:19.299Z,2.73
2023-03-17T10:20:28.953Z,3.93
2023-03-17T10:23:37.417Z,11.37
2023-03-17T10:26:50.943Z,4.97
2023-03-17T10:29:58.100Z,10.67
2023-03-17T10:33:07.237Z,6.53
2023-03-17T10:36:18.133Z,4.57
2023-03-17T10:39:25.834Z,9.10
2023-03-17T10:42:35.498Z,4.40
2023-03-17T10:45:55.855Z,5.93
2023-03-17T10:49:08.199Z,2.93
2023-03-17T10:52:22.224Z,4.67
2023-03-17T10:55:32.960Z,3.70
2023-03-17T10:58:44.561Z,117.77
2023-03-17T11:01:54.202Z,90.43
2023-03-17T11:05:04.440Z,19.63
2023-03-17T11:08:18.237Z,10.30
2023-03-17T11:11:27.354Z,7.90
2023-03-17T11:14:35.485Z,3.23
2023-03-17T11:17:49.938Z,3.17
2023-03-17T11:21:01.406Z,12.60
2023-03-17T11:24:10.632Z,16.30
2023-03-17T11:27:25.772Z,7.63
2023-03-17T11:30:38.049Z,54.80
2023-03-17T11:33:55.170Z,14.43
2023-03-17T11:37:10.203Z,3.60
2023-03-17T11:40:23.277Z,12.17
2023-03-17T11:43:34.537Z,7.57
2023-03-17T11:46:48.546Z,3.43
2023-03-17T11:50:02.770Z,2.43
2023-03-17T11:53:25.161Z,3.93
2023-03-17T11:56:39.736Z,12.40
2023-03-17T11:59:53.327Z,7.77
2023-03-17T12:03:09.707Z,5.40
2023-03-17T12:06:21.014Z,3.40
2023-03-17T12:09:32.019Z,4.97
2023-03-17T12:12:44.518Z,9.93
2023-03-17T12:15:56.519Z,6.20
2023-03-17T12:19:12.574Z,3.63
2023-03-17T12:22:26.732Z,2.07
2023-03-17T12:25:37.270Z,3.10
2023-03-17T12:28:49.931Z,2.40
2023-03-17T12:32:04.714Z,13.53
2023-03-17T12:35:26.720Z,4.97
2023-03-17T12:38:38.479Z,18.80
2023-03-17T12:42:01.719Z,31.17
2023-03-17T12:45:39.192Z,10.37
2023-03-17T12:49:17.008Z,5.43
2023-03-17T12:52:38.864Z,6.03
2023-03-17T12:55:49.341Z,3.43
2023-03-17T12:59:01.214Z,4.80
2023-03-17T13:02:17.333Z,13.53
2023-03-17T13:05:33.578Z,2.97
2023-03-17T13:08:43.210Z,2.60
2023-03-17T13:11:49.660Z,3.63
2023-03-17T13:14:59.279Z,5.43
2023-03-17T13:18:51.534Z,3.73
2023-03-17T13:22:33.849Z,3.37
2023-03-17T13:25:53.941Z,12.30
2023-03-17T13:29:23.668Z,8.40
2023-03-17T13:32:39.415Z,48.80
2023-03-17T13:35:55.362Z,10.00
2023-03-17T13:39:20.833Z,6.10
2023-03-17T13:42:45.995Z,4.87
2023-03-17T13:45:53.474Z,4.23
2023-03-17T13:49:05.525Z,4.87
2023-03-17T13:52:16.500Z,9.77
2023-03-17T13:55:41.274Z,14.47
2023-03-17T13:59:07.986Z,7.50
2023-03-17T14:02:18.528Z,2.80
2023-03-17T14:05:29.485Z,4.83
2023-03-17T14:08:38.524Z,5.57
2023-03-17T14:11:47.830Z,14.43
2023-03-17T14:15:07.637Z,25.57
2023-03-17T14:18:18.534Z,18.40
2023-03-17T14:21:26.751Z,21.43
2023-03-17T14:24:35.344Z,15.40
2023-03-17T14:27:42.258Z,7.87
2023-03-17T14:30:55.616Z,4.13
2023-03-17T14:34:03.328Z,2.37
2023-03-17T14:37:12.644Z,3.77
2023-03-17T14:40:22.578Z,6.70
2023-03-17T14:43:29.108Z,4.30
2023-03-17T14:46:39.051Z,2.07
2023-03-17T14:49:45.786Z,5.27
2023-03-17T14:52:52.446Z,6.00
2023-03-17T14:55:59.089Z,6.43
2023-03-17T14:59:08.741Z,4.27
2023-03-17T15:02:25.720Z,4.57
2023-03-17T15:05:39.403Z,5.67
2023-03-17T15:08:50.902Z,6.50
2023-03-17T15:11:59.807Z,7.53
2023-03-17T15:15:13.450Z,3.30
2023-03-17T15:18:23.543Z,3.50
2023-03-17T15:21:35.393Z,7.93
2023-03-17T15:24:44.289Z,7.80
2023-03-17T15:27:50.700Z,5.07
2023-03-17T15:31:11.669Z,17.03
2023-03-17T15:34:19.664Z,9.70
2023-03-17T15:37:28.950Z,5.10
2023-03-17T15:40:35.799Z,3.33
2023-03-17T15:43:42.495Z,2.10
2023-03-17T15:46:48.879Z,3.23
2023-03-17T15:50:01.368Z,4.73
2023-03-17T15:53:07.575Z,4.43
2023-03-17T15:56:19.232Z,7.83
2023-03-17T15:59:25.510Z,3.57
2023-03-17T16:02:34.805Z,12.40
2023-03-17T16:05:43.456Z,10.27
2023-03-17T16:08:50.895Z,5.60
2023-03-17T16:11:57.259Z,6.27
2023-03-17T16:15:10.285Z,11.47
2023-03-17T16:18:32.453Z,8.00
2023-03-17T16:21:40.357Z,5.67
2023-03-17T16:24:46.437Z,8.23
2023-03-17T16:27:53.365Z,9.83
2023-03-17T16:31:02.526Z,14.67
2023-03-17T16:34:16.900Z,8.57
2023-03-17T16:37:24.399Z,6.63
2023-03-17T16:40:36.663Z,8.60
2023-03-17T16:43:45.380Z,14.40
2023-03-17T16:46:51.635Z,11.73
2023-03-17T16:49:57.933Z,8.27
2023-03-17T16:53:05.699Z,12.80
2023-03-17T16:56:17.471Z,9.33
2023-03-17T16:59:28.393Z,10.97
2023-03-17T17:02:34.707Z,16.20
2023-03-17T17:05:42.048Z,19.80
2023-03-17T17:08:51.266Z,27.73
2023-03-17T17:11:58.598Z,48.03
2023-03-17T17:15:05.361Z,67.33
2023-03-17T17:18:16.093Z,77.33
2023-03-17T17:21:22.597Z,77.63
2023-03-17T17:24:30.200Z,34.17
2023-03-17T17:27:36.658Z,32.83
2023-03-17T17:30:45.365Z,35.10
2023-03-17T17:33:51.911Z,29.10
2023-03-17T17:36:58.751Z,29.70
2023-03-17T17:40:08.277Z,20.47
2023-03-17T17:43:14.734Z,15.50
2023-03-17T17:46:23.199Z,22.17
2023-03-17T17:49:30.056Z,27.43
2023-03-17T17:52:36.256Z,23.70
2023-03-17T17:55:45.849Z,18.77
2023-03-17T17:58:52.164Z,31.60
2023-03-17T18:02:00.004Z,28.97
2023-03-17T18:05:09.060Z,20.23
2023-03-17T18:08:16.244Z,28.63
2023-03-17T18:11:23.852Z,45.27
2023-03-17T18:14:31.384Z,44.37
2023-03-17T18:17:37.958Z,38.77
2023-03-17T18:20:44.654Z,34.50
2023-03-17T18:23:55.181Z,25.33
2023-03-17T18:27:04.127Z,30.00
2023-03-17T18:30:13.383Z,31.77
2023-03-17T18:33:21.284Z,27.97
2023-03-17T18:36:29.111Z,22.07
2023-03-17T18:39:36.100Z,36.37
2023-03-17T18:42:43.625Z,40.83
2023-03-17T18:45:49.781Z,46.70
2023-03-17T18:48:55.856Z,33.47
2023-03-17T18:52:02.078Z,34.53
2023-03-17T18:55:10.221Z,39.90
2023-03-17T18:58:18.096Z,29.77
2023-03-17T19:01:24.910Z,26.33
2023-03-17T19:04:32.115Z,29.00
2023-03-17T19:07:40.272Z,42.30
2023-03-17T19:10:46.658Z,52.83
2023-03-17T19:13:54.985Z,53.27
2023-03-17T19:17:01.431Z,47.40
2023-03-17T19:20:10.156Z,50.27
2023-03-17T19:23:16.707Z,41.77
2023-03-17T19:26:22.761Z,38.63
2023-03-17T19:29:30.691Z,54.37
2023-03-17T19:32:37.305Z,51.57
2023-03-17T19:35:44.641Z,50.43
2023-03-17T19:38:51.457Z,41.90
2023-03-17T19:41:59.378Z,54.90
2023-03-17T19:45:08.434Z,53.97
2023-03-17T19:48:14.932Z,54.47
2023-03-17T19:51:21.623Z,45.40
2023-03-17T19:54:28.204Z,44.50
2023-03-17T19:57:34.495Z,38.27
2023-03-17T20:00:43.195Z,32.50
2023-03-17T20:03:49.575Z,39.83
2023-03-17T20:06:57.059Z,28.33
2023-03-17T20:10:04.305Z,17.57
2023-03-17T20:13:10.868Z,15.07
2023-03-17T20:16:18.983Z,21.00
2023-03-17T20:19:26.309Z,47.97
2023-03-17T20:22:32.654Z,15.30
2023-03-17T20:25:39.668Z,10.37
2023-03-17T20:28:46.434Z,16.00
2023-03-17T20:31:54.227Z,22.43
2023-03-17T20:35:01.016Z,33.57
2023-03-17T20:38:08.389Z,41.57
2023-03-17T20:41:17.312Z,34.37
2023-03-17T20:44:24.768Z,29.10
2023-03-17T20:47:32.288Z,28.73
2023-03-17T20:50:39.626Z,32.37
2023-03-17T20:53:47.704Z,30.37
2023-03-17T20:56:56.077Z,33.90
2023-03-17T21:00:02.531Z,25.40
2023-03-17T21:03:10.879Z,35.80
2023-03-17T21:06:17.723Z,35.43
2023-03-17T21:09:24.130Z,57.60
2023-03-17T21:12:31.849Z,53.07
2023-03-17T21:15:38.617Z,50.93
2023-03-17T21:18:46.483Z,32.73
2023-03-17T21:21:53.005Z,21.73
2023-03-17T21:24:59.104Z,27.40
2023-03-17T21:28:06.389Z,20.73
2023-03-17T21:31:15.119Z,43.67
2023-03-17T21:34:24.701Z,38.80
2023-03-17T21:37:31.418Z,25.87
2023-03-17T21:40:38.592Z,32.63
2023-03-17T21:43:46.643Z,19.77
2023-03-17T21:46:55.156Z,22.50
2023-03-17T21:50:03.871Z,24.10
2023-03-17T21:53:11.487Z,21.93
2023-03-17T21:56:18.795Z,29.20
2023-03-17T21:59:25.568Z,13.23
2023-03-17T22:02:31.887Z,11.20
2023-03-17T22:05:39.897Z,9.43
2023-03-17T22:08:48.156Z,11.17
2023-03-17T22:11:54.416Z,16.13
2023-03-17T22:15:00.784Z,15.03
2023-03-17T22:18:07.287Z,12.07
2023-03-17T22:21:15.337Z,17.53
2023-03-17T22:24:21.667Z,8.50
2023-03-17T22:27:27.915Z,9.10
2023-03-17T22:30:34.528Z,7.53
2023-03-17T22:33:41.788Z,10.30
2023-03-17T22:36:49.622Z,17.17
2023-03-17T22:39:56.156Z,15.80
2023-03-17T22:43:02.682Z,163.97
2023-03-17T22:46:09.447Z,52.00
2023-03-17T22:49:15.901Z,31.57
2023-03-17T22:52:23.493Z,40.97
2023-03-17T22:55:29.722Z,28.37
2023-03-17T22:58:36.128Z,23.63
2023-03-17T23:01:42.715Z,21.00
2023-03-17T23:04:49.289Z,16.17
2023-03-17T23:07:57.699Z,16.33
2023-03-17T23:11:07.211Z,16.30
2023-03-17T23:14:13.500Z,25.97
2023-03-17T23:17:19.783Z,19.67
2023-03-17T23:20:26.768Z,10.40
2023-03-17T23:23:35.469Z,11.37
2023-03-17T23:26:42.063Z,12.63
2023-03-17T23:29:48.166Z,7.03
2023-03-17T23:32:54.819Z,10.20
2023-03-17T23:36:01.656Z,12.63
2023-03-17T23:39:10.297Z,12.90
2023-03-17T23:42:17.095Z,7.87
2023-03-17T23:45:23.950Z,6.93
2023-03-17T23:48:30.636Z,4.57
2023-03-17T23:51:37.000Z,6.37
2023-03-17T23:54:44.576Z,3.57
2023-03-17T23:57:50.880Z,6.63
